Destinations Keflavik International Airport

Keflavik International Airport (BIKF / KEF)

Flights to Keflavik International Airport

Flight number From ETE Dispatch
SPY-214 EHGG Groningen Airport Eelde 03:30
SPY-2256 EGFF Cardiff International Airport 03:00

Flights from Keflavik International Airport

Flight number To ETE Dispatch
SPY-215 EHGG Groningen Airport Eelde
SPY-2257 EGFF Cardiff International Airport 03:00
About

Keflavik International Airport facts

Keflavik International Airport is located in Keflavik at an elevation of 52.1 meters or 171 feet.

Currently, Speedy Airlines serves 4 flights to and from Keflavik International Airport.

Detailed airport info

Route map

Weather

Current weather

METAR

METAR

Metar data retrieved Sunday, 21 July 2024 at 19:55 UTC

BIKF 211930Z 33020KT 9999 FEW014 BKN029 BKN070 10/07 Q0999
Wind Temperature
20 kt 10c